This is the latest recevied weather packets stored in our database for station/object OK5TVR-5. If no packets are shown the sender has not sent any weather packets the latest 10 day(s).
| Time | Temp. | Humidity | Pressure | Rain* | Wind** | Luminosity | Snow |
|---|---|---|---|---|---|---|---|
| 1777868152 | 11.67° C | 77% | 1007.2 hPa | 0 mm | - | - | - |
| 1777867249 | 11.11° C | 79% | 1007.2 hPa | 0 mm | - | - | - |
| 1777867249 | 11.11° C | 79% | 1007.2 hPa | 0 mm | - | - | - |
| 1777866349 | 11.11° C | 81% | 1007.3 hPa | 0 mm | - | - | - |
| 1777866349 | 11.11° C | 81% | 1007.3 hPa | 0 mm | - | - | - |
| 1777866349 | 11.11° C | 81% | 1007.3 hPa | 0 mm | - | - | - |
| 1777865448 | 10.56° C | 81% | 1007.3 hPa | 0 mm | - | - | - |
| 1777865448 | 10.56° C | 81% | 1007.3 hPa | 0 mm | - | - | - |
| 1777864547 | 10.56° C | 79% | 1007.3 hPa | 0 mm | - | - | - |
| 1777864547 | 10.56° C | 79% | 1007.3 hPa | 0 mm | - | - | - |
| 1777863646 | 11.11° C | 76% | 1007.2 hPa | 0 mm | - | - | - |
| 1777863646 | 11.11° C | 76% | 1007.2 hPa | 0 mm | - | - | - |
| 1777862746 | 12.22° C | 73% | 1006 hPa | 0 mm | - | - | - |
| 1777862745 | 12.22° C | 73% | 1006 hPa | 0 mm | - | - | - |
| 1777861842 | 12.22° C | 72% | 1006.1 hPa | 0 mm | - | - | - |
| 1777860940 | 12.78° C | 71% | 1006 hPa | 0 mm | - | - | - |
| 1777860940 | 12.78° C | - | - | 0 mm | - | - | - |
| 1777860940 | 12.78° C | 71% | 1006 hPa | 0 mm | - | - | - |
| 1777860039 | 13.33° C | 67% | 1007 hPa | 0 mm | - | - | - |
| 1777859138 | 13.33° C | 67% | 1005.9 hPa | 0 mm | - | - | - |
| 1777858236 | 12.22° C | - | - | 0 mm | - | - | - |
| 1777858236 | 12.22° C | 72% | 1006 hPa | 0 mm | - | - | - |
| 1777858236 | 12.22° C | 72% | 1006 hPa | 0 mm | - | - | - |
| 1777857335 | 11.67° C | - | - | - | - | - | - |
| 1777857334 | 11.67° C | 75% | 1006.1 hPa | 0 mm | - | - | - |
* Rain latest hour (hover to see other rain measurements)
** Current wind speed in m/s (hover to see current wind gust speed)